NJE189A EDDH-EDDM
Flight info
| Callsign | NJE189A |
|---|---|
| Flight time | 1h 6m |
| Altitude | 35000 |
| Route | AMLUH2G AMLUH M852 DENIX/N0479F350 DCT ZUCKA DCT SODRO/N0491F310 T703 LULAR/N0493F300 T105 LANDU LANDU2B |
| Aircraft | C700/M-SBDGHM1RWXY/LB2 |
Departure
| Time | 2026-05-05 19:23 |
|---|---|
| Airport | Hamburg Helmut Schmidt Airport (EDDH) |
Arrival
| Time | 2026-05-05 20:29 |
|---|---|
| Airport | Munich Airport (EDDM) |
| Time | Latitude | Longitude | Altitude | Speed | Heading |
|---|---|---|---|---|---|
| 2026-05-05 19:05 | 53.62640 | 9.98642 | 41 ft | 0 kts | 64° |
| 2026-05-05 19:20 | 53.62646 | 9.98662 | 41 ft | 6 kts | 64° |
| 2026-05-05 19:20 | 53.62698 | 9.98658 | 41 ft | 11 kts | 331° |
| 2026-05-05 19:20 | 53.62751 | 9.98677 | 41 ft | 10 kts | 48° |
| 2026-05-05 19:20 | 53.62801 | 9.98780 | 41 ft | 13 kts | 50° |
| 2026-05-05 19:21 | 53.62866 | 9.98909 | 41 ft | 16 kts | 50° |
| 2026-05-05 19:21 | 53.62942 | 9.99065 | 41 ft | 18 kts | 50° |
| 2026-05-05 19:21 | 53.63020 | 9.99223 | 41 ft | 17 kts | 50° |
| 2026-05-05 19:21 | 53.63131 | 9.99312 | 41 ft | 20 kts | 12° |
| 2026-05-05 19:22 | 53.63263 | 9.99366 | 41 ft | 10 kts | 8° |
| 2026-05-05 19:22 | 53.63340 | 9.99337 | 41 ft | 14 kts | 331° |
| 2026-05-05 19:22 | 53.63576 | 9.99134 | 42 ft | 80 kts | 333° |
| 2026-05-05 19:22 | 53.64321 | 9.98429 | 188 ft | 154 kts | 332° |
| 2026-05-05 19:23 | 53.65375 | 9.97465 | 957 ft | 186 kts | 336° |
| 2026-05-05 19:23 | 53.66580 | 9.96493 | 1900 ft | 195 kts | 339° |
| 2026-05-05 19:23 | 53.67838 | 9.95505 | 2835 ft | 207 kts | 337° |
| 2026-05-05 19:23 | 53.69236 | 9.94726 | 3740 ft | 213 kts | 356° |
| 2026-05-05 19:24 | 53.70729 | 9.94716 | 4688 ft | 220 kts | 2° |
| 2026-05-05 19:24 | 53.72256 | 9.94962 | 5557 ft | 221 kts | 19° |
| 2026-05-05 19:24 | 53.73417 | 9.96649 | 6452 ft | 231 kts | 62° |
| 2026-05-05 19:24 | 53.73859 | 9.99308 | 7324 ft | 239 kts | 79° |
| 2026-05-05 19:25 | 53.74059 | 10.02118 | 8212 ft | 242 kts | 92° |
| 2026-05-05 19:25 | 53.73717 | 10.04925 | 9119 ft | 252 kts | 111° |
| 2026-05-05 19:25 | 53.72868 | 10.07698 | 9868 ft | 287 kts | 122° |
| 2026-05-05 19:25 | 53.71807 | 10.10729 | 9901 ft | 319 kts | 121° |
| 2026-05-05 19:26 | 53.70687 | 10.14092 | 9899 ft | 328 kts | 120° |
| 2026-05-05 19:26 | 53.69431 | 10.17196 | 9893 ft | 312 kts | 133° |
| 2026-05-05 19:26 | 53.67866 | 10.19633 | 9894 ft | 301 kts | 145° |
| 2026-05-05 19:26 | 53.66074 | 10.21420 | 9895 ft | 300 kts | 157° |
| 2026-05-05 19:27 | 53.64101 | 10.22551 | 9930 ft | 298 kts | 168° |
| 2026-05-05 19:27 | 53.62157 | 10.23422 | 10761 ft | 295 kts | 166° |
| 2026-05-05 19:27 | 53.60107 | 10.24387 | 11637 ft | 313 kts | 166° |
| 2026-05-05 19:27 | 53.57986 | 10.25365 | 12541 ft | 320 kts | 167° |
| 2026-05-05 19:28 | 53.55802 | 10.26357 | 13473 ft | 328 kts | 167° |
| 2026-05-05 19:28 | 53.53592 | 10.27369 | 14329 ft | 330 kts | 166° |
| 2026-05-05 19:28 | 53.51362 | 10.28390 | 15180 ft | 334 kts | 166° |
| 2026-05-05 19:28 | 53.49108 | 10.29420 | 16055 ft | 338 kts | 167° |
| 2026-05-05 19:29 | 53.46827 | 10.30459 | 16958 ft | 341 kts | 166° |
| 2026-05-05 19:29 | 53.44540 | 10.31503 | 17881 ft | 347 kts | 167° |
| 2026-05-05 19:29 | 53.42197 | 10.32569 | 18741 ft | 351 kts | 167° |
| 2026-05-05 19:29 | 53.39836 | 10.33635 | 19572 ft | 353 kts | 167° |
| 2026-05-05 19:30 | 53.37458 | 10.34700 | 20433 ft | 356 kts | 167° |
| 2026-05-05 19:30 | 53.35041 | 10.35784 | 21324 ft | 362 kts | 167° |
| 2026-05-05 19:30 | 53.32611 | 10.37061 | 22234 ft | 368 kts | 163° |
| 2026-05-05 19:30 | 53.30211 | 10.38625 | 23181 ft | 371 kts | 161° |
| 2026-05-05 19:31 | 53.27773 | 10.40147 | 24055 ft | 375 kts | 164° |
| 2026-05-05 19:31 | 53.25296 | 10.41536 | 24991 ft | 377 kts | 165° |
| 2026-05-05 19:31 | 53.22797 | 10.42958 | 25868 ft | 382 kts | 165° |
| 2026-05-05 19:31 | 53.20280 | 10.44461 | 26732 ft | 386 kts | 164° |
| 2026-05-05 19:32 | 53.17739 | 10.45970 | 27591 ft | 389 kts | 165° |
| 2026-05-05 19:32 | 53.15197 | 10.47444 | 28419 ft | 393 kts | 165° |
| 2026-05-05 19:32 | 53.12593 | 10.48953 | 29238 ft | 397 kts | 165° |
| 2026-05-05 19:32 | 53.09965 | 10.50488 | 30028 ft | 401 kts | 165° |
| 2026-05-05 19:33 | 53.07318 | 10.52037 | 30721 ft | 404 kts | 165° |
| 2026-05-05 19:33 | 53.04656 | 10.53583 | 31414 ft | 406 kts | 165° |
| 2026-05-05 19:33 | 53.01983 | 10.55132 | 32068 ft | 409 kts | 166° |
| 2026-05-05 19:33 | 52.99286 | 10.56695 | 32692 ft | 411 kts | 166° |
| 2026-05-05 19:34 | 52.96575 | 10.58268 | 33277 ft | 414 kts | 166° |
| 2026-05-05 19:34 | 52.93847 | 10.59846 | 33836 ft | 416 kts | 166° |
| 2026-05-05 19:34 | 52.91095 | 10.61433 | 34249 ft | 420 kts | 166° |
| 2026-05-05 19:35 | 52.85508 | 10.64653 | 34864 ft | 432 kts | 165° |
| 2026-05-05 19:35 | 52.82656 | 10.66290 | 34872 ft | 445 kts | 165° |
| 2026-05-05 19:35 | 52.79706 | 10.67984 | 34874 ft | 452 kts | 165° |
| 2026-05-05 19:36 | 52.73743 | 10.71413 | 34877 ft | 452 kts | 165° |
| 2026-05-05 19:36 | 52.67816 | 10.74794 | 34869 ft | 449 kts | 165° |
| 2026-05-05 19:37 | 52.61908 | 10.78163 | 34865 ft | 451 kts | 165° |
| 2026-05-05 19:37 | 52.55958 | 10.81542 | 34865 ft | 453 kts | 165° |
| 2026-05-05 19:38 | 52.49998 | 10.84922 | 34859 ft | 450 kts | 165° |
| 2026-05-05 19:38 | 52.44118 | 10.88245 | 34535 ft | 438 kts | 165° |
| 2026-05-05 19:38 | 52.41314 | 10.89831 | 34284 ft | 427 kts | 165° |
| 2026-05-05 19:39 | 52.38515 | 10.91402 | 34038 ft | 425 kts | 165° |
| 2026-05-05 19:39 | 52.32904 | 10.94554 | 34808 ft | 422 kts | 165° |
| 2026-05-05 19:39 | 52.30082 | 10.96135 | 34844 ft | 435 kts | 165° |
| 2026-05-05 19:40 | 52.27174 | 10.97753 | 34845 ft | 446 kts | 165° |
| 2026-05-05 19:40 | 52.21293 | 11.01054 | 34849 ft | 449 kts | 165° |
| 2026-05-05 19:41 | 52.15404 | 11.04331 | 34842 ft | 445 kts | 165° |
| 2026-05-05 19:41 | 52.09527 | 11.07596 | 34838 ft | 447 kts | 165° |
| 2026-05-05 19:42 | 52.03633 | 11.10864 | 34836 ft | 448 kts | 165° |
| 2026-05-05 19:42 | 51.97740 | 11.14120 | 34831 ft | 445 kts | 165° |
| 2026-05-05 19:43 | 51.91890 | 11.17344 | 34828 ft | 442 kts | 165° |
| 2026-05-05 19:43 | 51.86085 | 11.20533 | 34829 ft | 445 kts | 164° |
| 2026-05-05 19:44 | 51.80216 | 11.23751 | 34826 ft | 445 kts | 164° |
| 2026-05-05 19:44 | 51.74363 | 11.26951 | 34821 ft | 442 kts | 164° |
| 2026-05-05 19:45 | 51.68553 | 11.30117 | 34826 ft | 440 kts | 164° |
| 2026-05-05 19:45 | 51.62719 | 11.33286 | 34818 ft | 443 kts | 164° |
| 2026-05-05 19:46 | 51.56880 | 11.36455 | 34809 ft | 442 kts | 164° |
| 2026-05-05 19:46 | 51.51090 | 11.39583 | 34799 ft | 441 kts | 164° |
| 2026-05-05 19:47 | 51.45278 | 11.42719 | 34797 ft | 440 kts | 164° |
| 2026-05-05 19:47 | 51.39471 | 11.45839 | 34793 ft | 441 kts | 164° |
| 2026-05-05 19:48 | 51.33639 | 11.48968 | 34790 ft | 443 kts | 163° |
| 2026-05-05 19:48 | 51.27770 | 11.52107 | 34789 ft | 444 kts | 163° |
| 2026-05-05 19:49 | 51.21931 | 11.55222 | 34785 ft | 441 kts | 163° |
| 2026-05-05 19:49 | 51.16079 | 11.58335 | 34780 ft | 445 kts | 163° |
| 2026-05-05 19:50 | 51.10174 | 11.61468 | 34780 ft | 448 kts | 163° |
| 2026-05-05 19:50 | 51.04278 | 11.64588 | 34778 ft | 446 kts | 163° |
| 2026-05-05 19:51 | 50.98435 | 11.67671 | 34770 ft | 445 kts | 163° |
| 2026-05-05 19:51 | 50.92528 | 11.70780 | 34770 ft | 448 kts | 163° |
| 2026-05-05 19:52 | 50.87585 | 11.73374 | 34771 ft | 450 kts | 163° |
| 2026-05-05 19:52 | 50.81646 | 11.76487 | 34766 ft | 448 kts | 163° |
| 2026-05-05 19:53 | 50.75735 | 11.79574 | 34764 ft | 447 kts | 163° |
| 2026-05-05 19:53 | 50.69819 | 11.82655 | 34761 ft | 449 kts | 163° |
| 2026-05-05 19:54 | 50.63860 | 11.85751 | 34763 ft | 451 kts | 163° |
| 2026-05-05 19:54 | 50.57891 | 11.88845 | 34765 ft | 450 kts | 163° |
| 2026-05-05 19:55 | 50.51986 | 11.91896 | 34772 ft | 449 kts | 163° |
| 2026-05-05 19:55 | 50.46055 | 11.94953 | 34781 ft | 449 kts | 162° |
| 2026-05-05 19:56 | 50.40111 | 11.98009 | 34786 ft | 450 kts | 163° |
| 2026-05-05 19:56 | 50.34153 | 12.01064 | 34795 ft | 451 kts | 163° |
| 2026-05-05 19:57 | 50.28183 | 12.04117 | 34790 ft | 452 kts | 163° |
| 2026-05-05 19:57 | 50.22204 | 12.07166 | 34784 ft | 451 kts | 163° |
| 2026-05-05 19:58 | 50.16242 | 12.10199 | 34780 ft | 449 kts | 163° |
| 2026-05-05 19:58 | 50.10304 | 12.13212 | 34774 ft | 449 kts | 163° |
| 2026-05-05 19:59 | 50.04391 | 12.16203 | 34768 ft | 452 kts | 163° |
| 2026-05-05 19:59 | 49.98393 | 12.19231 | 34767 ft | 453 kts | 163° |
| 2026-05-05 20:00 | 49.92408 | 12.22243 | 34773 ft | 451 kts | 163° |
| 2026-05-05 20:00 | 49.86438 | 12.25240 | 34772 ft | 450 kts | 163° |
| 2026-05-05 20:01 | 49.80481 | 12.28224 | 34776 ft | 450 kts | 164° |
| 2026-05-05 20:01 | 49.74508 | 12.31275 | 34775 ft | 454 kts | 161° |
| 2026-05-05 20:02 | 49.68997 | 12.36115 | 34251 ft | 455 kts | 146° |
| 2026-05-05 20:02 | 49.66528 | 12.39054 | 33640 ft | 443 kts | 146° |
| 2026-05-05 20:02 | 49.64096 | 12.41887 | 33050 ft | 431 kts | 146° |
| 2026-05-05 20:02 | 49.61728 | 12.44617 | 32490 ft | 430 kts | 146° |
| 2026-05-05 20:03 | 49.59315 | 12.47422 | 31916 ft | 439 kts | 146° |
| 2026-05-05 20:03 | 49.56876 | 12.50274 | 31340 ft | 442 kts | 145° |
| 2026-05-05 20:03 | 49.54423 | 12.53131 | 30751 ft | 441 kts | 146° |
| 2026-05-05 20:03 | 49.51973 | 12.55966 | 30174 ft | 440 kts | 145° |
| 2026-05-05 20:04 | 49.49526 | 12.58797 | 29556 ft | 439 kts | 145° |
| 2026-05-05 20:04 | 49.47100 | 12.61608 | 28964 ft | 435 kts | 145° |
| 2026-05-05 20:04 | 49.44687 | 12.64399 | 28404 ft | 432 kts | 145° |
| 2026-05-05 20:04 | 49.42384 | 12.67344 | 27831 ft | 430 kts | 141° |
| 2026-05-05 20:05 | 49.39918 | 12.69851 | 27266 ft | 423 kts | 155° |
| 2026-05-05 20:05 | 49.37171 | 12.71421 | 26706 ft | 419 kts | 167° |
| 2026-05-05 20:05 | 49.34330 | 12.72008 | 26170 ft | 415 kts | 179° |
| 2026-05-05 20:05 | 49.31457 | 12.71629 | 25621 ft | 413 kts | 191° |
| 2026-05-05 20:06 | 49.28730 | 12.70311 | 25079 ft | 411 kts | 202° |
| 2026-05-05 20:06 | 49.26151 | 12.68479 | 24552 ft | 407 kts | 204° |
| 2026-05-05 20:06 | 49.23582 | 12.66646 | 24010 ft | 405 kts | 204° |
| 2026-05-05 20:06 | 49.21030 | 12.64835 | 23484 ft | 403 kts | 204° |
| 2026-05-05 20:07 | 49.18495 | 12.63019 | 22912 ft | 399 kts | 204° |
| 2026-05-05 20:07 | 49.16001 | 12.61218 | 22384 ft | 395 kts | 204° |
| 2026-05-05 20:07 | 49.13558 | 12.59469 | 21875 ft | 391 kts | 204° |
| 2026-05-05 20:07 | 49.11093 | 12.57715 | 21360 ft | 389 kts | 204° |
| 2026-05-05 20:08 | 49.08647 | 12.55968 | 20850 ft | 387 kts | 205° |
| 2026-05-05 20:08 | 49.06214 | 12.54229 | 20337 ft | 386 kts | 205° |
| 2026-05-05 20:08 | 49.03787 | 12.52502 | 19831 ft | 382 kts | 205° |
| 2026-05-05 20:08 | 49.01396 | 12.50794 | 19332 ft | 378 kts | 205° |
| 2026-05-05 20:09 | 48.99022 | 12.49091 | 18834 ft | 375 kts | 205° |
| 2026-05-05 20:09 | 48.96657 | 12.47400 | 18341 ft | 373 kts | 205° |
| 2026-05-05 20:09 | 48.94314 | 12.45730 | 17825 ft | 370 kts | 205° |
| 2026-05-05 20:09 | 48.92019 | 12.44094 | 17333 ft | 367 kts | 205° |
| 2026-05-05 20:10 | 48.89717 | 12.42454 | 16850 ft | 362 kts | 206° |
| 2026-05-05 20:10 | 48.87490 | 12.40868 | 16382 ft | 345 kts | 206° |
| 2026-05-05 20:10 | 48.85362 | 12.39359 | 15934 ft | 332 kts | 206° |
| 2026-05-05 20:10 | 48.83286 | 12.37882 | 15501 ft | 329 kts | 206° |
| 2026-05-05 20:11 | 48.81210 | 12.36410 | 15071 ft | 328 kts | 206° |
| 2026-05-05 20:11 | 48.79179 | 12.35012 | 14635 ft | 313 kts | 202° |
| 2026-05-05 20:11 | 48.77127 | 12.34135 | 14233 ft | 299 kts | 195° |
| 2026-05-05 20:11 | 48.75148 | 12.33387 | 13846 ft | 288 kts | 197° |
| 2026-05-05 20:12 | 48.73223 | 12.32612 | 13454 ft | 285 kts | 197° |
| 2026-05-05 20:12 | 48.71301 | 12.31864 | 13063 ft | 285 kts | 196° |
| 2026-05-05 20:12 | 48.69377 | 12.31129 | 12714 ft | 285 kts | 196° |
| 2026-05-05 20:12 | 48.67489 | 12.30404 | 12497 ft | 282 kts | 196° |
| 2026-05-05 20:13 | 48.65586 | 12.29674 | 12289 ft | 283 kts | 197° |
| 2026-05-05 20:13 | 48.63669 | 12.28937 | 12081 ft | 283 kts | 197° |
| 2026-05-05 20:13 | 48.61806 | 12.28228 | 11874 ft | 268 kts | 197° |
| 2026-05-05 20:13 | 48.60049 | 12.27556 | 11662 ft | 254 kts | 197° |
| 2026-05-05 20:14 | 48.58439 | 12.26666 | 11437 ft | 241 kts | 215° |
| 2026-05-05 20:14 | 48.57414 | 12.24744 | 11209 ft | 238 kts | 248° |
| 2026-05-05 20:14 | 48.57117 | 12.22275 | 11004 ft | 241 kts | 263° |
| 2026-05-05 20:14 | 48.57010 | 12.19744 | 10804 ft | 242 kts | 265° |
| 2026-05-05 20:15 | 48.56869 | 12.17211 | 10603 ft | 241 kts | 255° |
| 2026-05-05 20:15 | 48.56039 | 12.15067 | 10403 ft | 240 kts | 223° |
| 2026-05-05 20:15 | 48.54533 | 12.13978 | 10123 ft | 247 kts | 193° |
| 2026-05-05 20:15 | 48.52810 | 12.13924 | 9837 ft | 248 kts | 181° |
| 2026-05-05 20:16 | 48.51092 | 12.14093 | 9541 ft | 246 kts | 180° |
| 2026-05-05 20:16 | 48.49407 | 12.14290 | 9230 ft | 245 kts | 179° |
| 2026-05-05 20:16 | 48.47710 | 12.14495 | 8918 ft | 244 kts | 179° |
| 2026-05-05 20:16 | 48.46033 | 12.14874 | 8590 ft | 249 kts | 164° |
| 2026-05-05 20:17 | 48.44626 | 12.16438 | 8270 ft | 259 kts | 131° |
| 2026-05-05 20:17 | 48.43952 | 12.18958 | 7948 ft | 266 kts | 98° |
| 2026-05-05 20:17 | 48.43990 | 12.21734 | 7647 ft | 265 kts | 86° |
| 2026-05-05 20:17 | 48.44167 | 12.24499 | 7352 ft | 264 kts | 84° |
| 2026-05-05 20:18 | 48.44356 | 12.27238 | 7104 ft | 260 kts | 84° |
| 2026-05-05 20:18 | 48.44540 | 12.29914 | 6972 ft | 256 kts | 84° |
| 2026-05-05 20:18 | 48.44724 | 12.32597 | 6854 ft | 259 kts | 84° |
| 2026-05-05 20:18 | 48.44908 | 12.35314 | 6734 ft | 261 kts | 84° |
| 2026-05-05 20:19 | 48.44956 | 12.38035 | 6601 ft | 260 kts | 101° |
| 2026-05-05 20:19 | 48.44191 | 12.40397 | 6452 ft | 243 kts | 135° |
| 2026-05-05 20:19 | 48.42824 | 12.41611 | 6302 ft | 221 kts | 171° |
| 2026-05-05 20:19 | 48.41363 | 12.41392 | 6147 ft | 210 kts | 208° |
| 2026-05-05 20:20 | 48.40350 | 12.39906 | 6006 ft | 205 kts | 246° |
| 2026-05-05 20:20 | 48.40194 | 12.37816 | 5863 ft | 205 kts | 281° |
| 2026-05-05 20:20 | 48.40522 | 12.35738 | 5738 ft | 204 kts | 278° |
| 2026-05-05 20:20 | 48.40581 | 12.33640 | 5613 ft | 204 kts | 267° |
| 2026-05-05 20:21 | 48.40459 | 12.31518 | 5492 ft | 203 kts | 265° |
| 2026-05-05 20:21 | 48.40311 | 12.29446 | 5387 ft | 189 kts | 263° |
| 2026-05-05 20:21 | 48.40157 | 12.27611 | 5267 ft | 168 kts | 264° |
| 2026-05-05 20:21 | 48.40041 | 12.25894 | 5140 ft | 164 kts | 264° |
| 2026-05-05 20:22 | 48.39893 | 12.24176 | 5017 ft | 166 kts | 264° |
| 2026-05-05 20:22 | 48.39779 | 12.22464 | 5002 ft | 163 kts | 265° |
| 2026-05-05 20:22 | 48.39634 | 12.20745 | 5003 ft | 167 kts | 263° |
| 2026-05-05 20:22 | 48.39511 | 12.19003 | 5009 ft | 168 kts | 265° |
| 2026-05-05 20:23 | 48.39373 | 12.17258 | 5011 ft | 168 kts | 263° |
| 2026-05-05 20:23 | 48.39238 | 12.15515 | 5008 ft | 167 kts | 265° |
| 2026-05-05 20:23 | 48.39112 | 12.13785 | 5009 ft | 166 kts | 263° |
| 2026-05-05 20:23 | 48.38969 | 12.12060 | 5012 ft | 167 kts | 264° |
| 2026-05-05 20:24 | 48.38853 | 12.10323 | 5012 ft | 167 kts | 264° |
| 2026-05-05 20:24 | 48.38701 | 12.08576 | 4924 ft | 171 kts | 263° |
| 2026-05-05 20:24 | 48.38583 | 12.06825 | 4711 ft | 168 kts | 265° |
| 2026-05-05 20:24 | 48.38442 | 12.05128 | 4490 ft | 160 kts | 263° |
| 2026-05-05 20:25 | 48.38325 | 12.03497 | 4283 ft | 154 kts | 265° |
| 2026-05-05 20:25 | 48.38200 | 12.01920 | 4072 ft | 150 kts | 263° |
| 2026-05-05 20:25 | 48.38082 | 12.00376 | 3873 ft | 147 kts | 265° |
| 2026-05-05 20:25 | 48.37972 | 11.98898 | 3694 ft | 129 kts | 263° |
| 2026-05-05 20:26 | 48.37871 | 11.97643 | 3523 ft | 117 kts | 266° |
| 2026-05-05 20:26 | 48.37785 | 11.96426 | 3373 ft | 118 kts | 264° |
| 2026-05-05 20:26 | 48.37683 | 11.95201 | 3218 ft | 118 kts | 265° |
| 2026-05-05 20:26 | 48.37599 | 11.93971 | 3064 ft | 118 kts | 263° |
| 2026-05-05 20:27 | 48.37494 | 11.92737 | 2904 ft | 119 kts | 266° |
| 2026-05-05 20:27 | 48.37411 | 11.91501 | 2748 ft | 119 kts | 264° |
| 2026-05-05 20:27 | 48.37303 | 11.90259 | 2579 ft | 119 kts | 265° |
| 2026-05-05 20:27 | 48.37221 | 11.89016 | 2423 ft | 119 kts | 264° |
| 2026-05-05 20:28 | 48.37107 | 11.87804 | 2250 ft | 118 kts | 262° |
| 2026-05-05 20:28 | 48.37011 | 11.86568 | 2100 ft | 117 kts | 265° |
| 2026-05-05 20:28 | 48.36927 | 11.85357 | 1945 ft | 119 kts | 264° |
| 2026-05-05 20:28 | 48.36837 | 11.84120 | 1815 ft | 118 kts | 265° |
| 2026-05-05 20:29 | 48.36741 | 11.82913 | 1641 ft | 113 kts | 265° |
| 2026-05-05 20:29 | 48.36663 | 11.81777 | 1489 ft | 102 kts | 263° |
| 2026-05-05 20:29 | 48.36594 | 11.80895 | 1476 ft | 62 kts | 263° |
| 2026-05-05 20:29 | 48.36552 | 11.80354 | 1473 ft | 46 kts | 263° |
| 2026-05-05 20:30 | 48.36521 | 11.79963 | 1477 ft | 29 kts | 261° |
| 2026-05-05 20:30 | 48.36439 | 11.79679 | 1477 ft | 31 kts | 234° |
| 2026-05-05 20:30 | 48.36332 | 11.79463 | 1474 ft | 17 kts | 233° |
| 2026-05-05 20:30 | 48.36275 | 11.79347 | 1475 ft | 15 kts | 233° |
| 2026-05-05 20:31 | 48.36219 | 11.79297 | 1480 ft | 8 kts | 188° |
| 2026-05-05 20:31 | 48.36163 | 11.79303 | 1480 ft | 8 kts | 171° |
| 2026-05-05 20:31 | 48.36096 | 11.79314 | 1477 ft | 12 kts | 173° |
| 2026-05-05 20:31 | 48.36004 | 11.79329 | 1475 ft | 15 kts | 171° |
| 2026-05-05 20:32 | 48.35917 | 11.79360 | 1471 ft | 12 kts | 146° |
| 2026-05-05 20:32 | 48.35831 | 11.79392 | 1473 ft | 12 kts | 158° |
| 2026-05-05 20:32 | 48.35815 | 11.79522 | 1480 ft | 16 kts | 83° |
| 2026-05-05 20:32 | 48.35829 | 11.79705 | 1480 ft | 20 kts | 84° |
| 2026-05-05 20:33 | 48.35846 | 11.79928 | 1480 ft | 23 kts | 83° |
| 2026-05-05 20:33 | 48.35863 | 11.80143 | 1473 ft | 13 kts | 83° |
| 2026-05-05 20:33 | 48.35868 | 11.80198 | 1480 ft | 0 kts | 83° |
| 2026-05-05 20:34 | 48.35864 | 11.80232 | 1480 ft | 9 kts | 111° |
| 2026-05-05 20:34 | 48.35840 | 11.80287 | 1472 ft | 7 kts | 125° |
| 2026-05-05 20:34 | 48.35830 | 11.80344 | 1480 ft | 4 kts | 111° |
| 2026-05-05 20:34 | 48.35805 | 11.80356 | 1476 ft | 6 kts | 173° |
| 2026-05-05 20:35 | 48.35787 | 11.80359 | 1471 ft | 0 kts | 174° |